createdAt,value
2019-05-22T00:00:05.683Z,22.60
2019-05-22T00:02:37.201Z,20.77
2019-05-22T00:05:14.565Z,21.37
2019-05-22T00:07:44.746Z,23.13
2019-05-22T00:10:18.983Z,22.77
2019-05-22T00:12:49.067Z,23.00
2019-05-22T00:15:21.169Z,22.13
2019-05-22T00:17:51.454Z,25.10
2019-05-22T00:20:23.315Z,21.63
2019-05-22T00:22:53.772Z,20.47
2019-05-22T00:25:27.097Z,24.07
2019-05-22T00:27:59.107Z,22.80
2019-05-22T00:30:32.100Z,24.53
2019-05-22T00:33:02.604Z,27.27
2019-05-22T00:35:34.464Z,21.07
2019-05-22T00:38:06.854Z,23.77
2019-05-22T00:40:42.816Z,22.33
2019-05-22T00:43:14.441Z,25.03
2019-05-22T00:45:45.814Z,25.27
2019-05-22T00:48:16.097Z,24.30
2019-05-22T00:50:53.503Z,23.57
2019-05-22T00:53:39.037Z,22.90
2019-05-22T00:56:25.947Z,22.43
2019-05-22T00:59:01.898Z,22.43
2019-05-22T01:01:37.308Z,28.27
2019-05-22T01:04:08.765Z,22.10
2019-05-22T01:06:38.777Z,20.60
2019-05-22T01:09:10.895Z,22.57
2019-05-22T01:11:42.700Z,20.20
2019-05-22T01:14:13.231Z,22.40
2019-05-22T01:16:43.690Z,23.23
2019-05-22T01:19:13.446Z,21.47
2019-05-22T01:21:45.143Z,21.17
2019-05-22T01:24:14.731Z,23.63
2019-05-22T01:26:46.535Z,20.80
2019-05-22T01:29:16.468Z,20.17
2019-05-22T01:31:50.702Z,21.53
2019-05-22T01:34:29.555Z,24.03
2019-05-22T01:37:04.597Z,20.27
2019-05-22T01:39:55.506Z,21.40
2019-05-22T01:42:30.607Z,19.93
2019-05-22T01:45:06.597Z,18.40
2019-05-22T01:47:42.515Z,21.40
2019-05-22T01:50:15.696Z,22.17
2019-05-22T01:52:45.987Z,22.43
2019-05-22T01:55:18.338Z,22.50
2019-05-22T01:57:49.787Z,20.80
2019-05-22T02:00:21.034Z,20.60
2019-05-22T02:02:53.248Z,19.97
2019-05-22T02:05:25.028Z,23.83
2019-05-22T02:07:55.539Z,19.93
2019-05-22T02:10:27.661Z,22.53
2019-05-22T02:12:59.198Z,21.60
2019-05-22T02:15:30.507Z,21.47
2019-05-22T02:18:01.942Z,20.73
2019-05-22T02:20:35.975Z,21.73
2019-05-22T02:23:07.278Z,22.07
2019-05-22T02:25:42.102Z,21.17
2019-05-22T02:28:12.767Z,21.47
2019-05-22T02:30:43.836Z,20.27
2019-05-22T02:33:17.967Z,19.90
2019-05-22T02:35:49.142Z,18.37
2019-05-22T02:38:18.835Z,20.03
2019-05-22T02:40:50.240Z,17.30
2019-05-22T02:43:21.733Z,18.33
2019-05-22T02:45:51.923Z,19.80
2019-05-22T02:48:22.467Z,20.40
2019-05-22T02:50:52.252Z,23.33
2019-05-22T02:53:23.638Z,19.27
2019-05-22T02:55:54.592Z,20.93
2019-05-22T02:58:25.288Z,19.43
2019-05-22T03:00:58.196Z,18.13
2019-05-22T03:03:30.961Z,22.53
2019-05-22T03:06:01.613Z,20.00
2019-05-22T03:08:53.924Z,19.90
2019-05-22T03:11:24.782Z,19.07
2019-05-22T03:13:59.653Z,19.73
2019-05-22T03:16:44.886Z,18.13
2019-05-22T03:19:17.641Z,20.30
2019-05-22T03:21:47.668Z,21.67
2019-05-22T03:24:17.518Z,19.37
2019-05-22T03:26:48.047Z,20.17
2019-05-22T03:29:19.783Z,20.10
2019-05-22T03:31:50.182Z,22.57
2019-05-22T03:34:21.398Z,20.43
2019-05-22T03:36:52.373Z,20.27
2019-05-22T03:39:22.212Z,21.53
2019-05-22T03:41:52.203Z,22.90
2019-05-22T03:44:23.989Z,19.63
2019-05-22T03:46:53.750Z,19.60
2019-05-22T03:49:30.409Z,20.37
2019-05-22T03:51:59.042Z,20.80
2019-05-22T03:54:28.787Z,21.60
2019-05-22T03:56:58.675Z,21.47
2019-05-22T03:59:28.567Z,20.13
2019-05-22T04:01:58.481Z,20.17
2019-05-22T04:04:40.267Z,18.67
2019-05-22T04:07:13.975Z,19.60
2019-05-22T04:09:44.651Z,17.17
2019-05-22T04:12:19.043Z,19.07
2019-05-22T04:14:49.625Z,19.37
2019-05-22T04:17:20.110Z,18.97
2019-05-22T04:19:51.630Z,17.53
2019-05-22T04:22:21.580Z,20.70
2019-05-22T04:24:51.173Z,20.37
2019-05-22T04:27:21.502Z,21.03
2019-05-22T04:29:52.235Z,23.87
2019-05-22T04:32:28.777Z,21.03
2019-05-22T04:34:58.605Z,20.63
2019-05-22T04:37:29.445Z,23.17
2019-05-22T04:40:33.148Z,17.93
2019-05-22T04:43:03.180Z,19.40
2019-05-22T04:45:33.016Z,22.00
2019-05-22T04:48:03.722Z,16.67
2019-05-22T04:50:33.716Z,19.43
2019-05-22T04:53:03.535Z,19.30
2019-05-22T04:55:33.992Z,20.70
2019-05-22T04:58:04.592Z,19.00
2019-05-22T05:00:35.472Z,18.23
2019-05-22T05:03:05.384Z,20.20
2019-05-22T05:05:39.456Z,19.43
2019-05-22T05:08:09.802Z,17.77
2019-05-22T05:10:41.207Z,18.33
2019-05-22T05:13:11.038Z,20.70
2019-05-22T05:15:41.645Z,20.97
2019-05-22T05:18:11.475Z,22.27
2019-05-22T05:20:41.176Z,18.93
2019-05-22T05:23:10.875Z,20.33
2019-05-22T05:25:41.936Z,19.87
2019-05-22T05:28:12.405Z,19.30
2019-05-22T05:30:42.120Z,21.73
2019-05-22T05:33:12.497Z,20.53
2019-05-22T05:35:44.050Z,20.30
2019-05-22T05:38:13.873Z,18.57
2019-05-22T05:40:44.076Z,18.30
2019-05-22T05:43:14.909Z,21.43
2019-05-22T05:45:46.401Z,19.40
2019-05-22T05:48:17.623Z,19.03
2019-05-22T05:51:04.982Z,17.70
2019-05-22T05:53:37.129Z,19.67
2019-05-22T05:56:13.977Z,19.37
2019-05-22T05:58:44.532Z,19.37
2019-05-22T06:01:21.701Z,19.20
2019-05-22T06:03:52.686Z,22.70
2019-05-22T06:06:51.505Z,23.27
2019-05-22T06:09:21.980Z,20.63
2019-05-22T06:11:53.651Z,19.20
2019-05-22T06:14:25.645Z,22.70
2019-05-22T06:17:34.299Z,25.23
2019-05-22T06:20:07.416Z,29.10
2019-05-22T06:22:38.080Z,23.50
2019-05-22T06:25:08.287Z,24.53
2019-05-22T06:27:53.055Z,22.03
2019-05-22T06:30:46.248Z,24.57
2019-05-22T06:33:29.394Z,20.40
2019-05-22T06:36:00.717Z,20.93
2019-05-22T06:38:51.781Z,20.10
2019-05-22T06:41:24.431Z,23.30
2019-05-22T06:44:11.861Z,21.73
2019-05-22T06:46:45.200Z,23.23
2019-05-22T06:49:36.287Z,28.80
2019-05-22T06:52:06.738Z,26.97
2019-05-22T06:54:36.983Z,26.30
2019-05-22T06:57:10.232Z,29.87
2019-05-22T06:59:41.072Z,25.73
2019-05-22T07:02:12.911Z,27.20
2019-05-22T07:04:43.539Z,29.77
2019-05-22T07:07:13.781Z,27.00
2019-05-22T07:09:44.710Z,26.57
2019-05-22T07:12:20.468Z,24.40
2019-05-22T07:15:11.154Z,25.87
2019-05-22T07:17:41.889Z,24.83
2019-05-22T07:20:13.140Z,32.33
2019-05-22T07:22:43.249Z,25.93
2019-05-22T07:25:13.111Z,24.47
2019-05-22T07:27:43.289Z,27.67
2019-05-22T07:30:13.409Z,29.43
2019-05-22T07:32:43.228Z,25.63
2019-05-22T07:35:13.308Z,23.80
2019-05-22T07:37:44.599Z,23.97
2019-05-22T07:40:14.587Z,21.90
2019-05-22T07:42:44.583Z,21.60
2019-05-22T07:45:14.472Z,23.23
2019-05-22T07:47:44.759Z,24.97
2019-05-22T07:50:14.444Z,27.80
2019-05-22T07:52:44.255Z,21.97
2019-05-22T07:55:14.174Z,25.53
2019-05-22T07:57:45.619Z,24.43
2019-05-22T08:00:15.045Z,22.90
2019-05-22T08:02:46.288Z,22.40
2019-05-22T08:05:16.567Z,19.33
2019-05-22T08:07:46.843Z,22.10
2019-05-22T08:10:17.848Z,24.17
2019-05-22T08:12:48.927Z,22.87
2019-05-22T08:15:19.544Z,20.60
2019-05-22T08:17:49.820Z,21.73
2019-05-22T08:20:19.485Z,20.03
2019-05-22T08:22:51.348Z,24.03
2019-05-22T08:25:21.145Z,18.93
2019-05-22T08:27:51.163Z,20.13
2019-05-22T08:30:20.731Z,19.83
2019-05-22T08:32:50.762Z,17.27
2019-05-22T08:35:20.486Z,20.27
2019-05-22T08:37:50.704Z,18.77
2019-05-22T08:40:20.880Z,20.20
2019-05-22T08:42:50.683Z,17.37
2019-05-22T08:45:21.301Z,20.90
2019-05-22T08:47:51.179Z,24.07
2019-05-22T08:50:22.458Z,17.67
2019-05-22T08:52:52.384Z,16.70
2019-05-22T08:55:22.463Z,17.23
2019-05-22T08:57:52.174Z,16.13
2019-05-22T09:00:23.196Z,20.17
2019-05-22T09:02:53.208Z,18.27
2019-05-22T09:05:23.423Z,14.00
2019-05-22T09:07:53.171Z,13.80
2019-05-22T09:10:26.209Z,18.80
2019-05-22T09:12:58.324Z,16.27
2019-05-22T09:15:28.889Z,25.37
2019-05-22T09:17:58.761Z,22.80
2019-05-22T09:20:28.430Z,20.90
2019-05-22T09:22:59.568Z,20.83
2019-05-22T09:25:29.315Z,15.80
2019-05-22T09:28:00.168Z,14.57
2019-05-22T09:30:30.438Z,13.57
2019-05-22T09:33:00.299Z,13.43
2019-05-22T09:35:29.927Z,12.90
2019-05-22T09:37:59.619Z,13.73
2019-05-22T09:40:30.031Z,10.90
2019-05-22T09:42:59.899Z,12.90
2019-05-22T09:45:29.599Z,13.00
2019-05-22T09:47:59.689Z,16.17
2019-05-22T09:50:29.467Z,11.60
2019-05-22T09:52:59.433Z,16.00
2019-05-22T09:55:29.410Z,14.30
2019-05-22T09:57:59.255Z,13.40
2019-05-22T10:00:29.892Z,17.57
2019-05-22T10:02:59.638Z,27.70
2019-05-22T10:05:30.044Z,26.70
2019-05-22T10:08:01.740Z,14.83
2019-05-22T10:10:32.079Z,16.87
2019-05-22T10:13:01.961Z,24.07
2019-05-22T10:15:32.395Z,22.60
2019-05-22T10:18:02.053Z,15.33
2019-05-22T10:20:31.938Z,15.13
2019-05-22T10:23:14.887Z,23.47
2019-05-22T10:25:33.430Z,16.03
2019-05-22T10:28:03.791Z,18.37
2019-05-22T10:30:33.513Z,21.90
2019-05-22T10:33:03.703Z,22.60
2019-05-22T10:35:34.566Z,18.60
2019-05-22T10:38:04.927Z,20.50
2019-05-22T10:40:34.762Z,16.33
2019-05-22T10:43:04.399Z,19.40
2019-05-22T10:45:34.333Z,16.40
2019-05-22T10:48:04.174Z,16.30
2019-05-22T10:50:34.104Z,16.63
2019-05-22T10:53:03.767Z,20.77
2019-05-22T10:55:33.784Z,12.87
2019-05-22T10:58:04.033Z,14.23
2019-05-22T11:00:33.840Z,16.27
2019-05-22T11:03:03.685Z,19.00
2019-05-22T11:05:33.531Z,18.90
2019-05-22T11:08:04.165Z,17.67
2019-05-22T11:10:34.447Z,15.57
2019-05-22T11:13:04.811Z,19.87
2019-05-22T11:15:34.907Z,16.33
2019-05-22T11:18:04.749Z,14.77
2019-05-22T11:20:35.441Z,17.30
2019-05-22T11:23:05.298Z,54.40
2019-05-22T11:25:35.296Z,39.83
2019-05-22T11:28:04.928Z,21.27
2019-05-22T11:30:35.743Z,20.67
2019-05-22T11:33:05.923Z,15.47
2019-05-22T11:35:36.035Z,17.65
2019-05-22T11:38:05.629Z,15.57
2019-05-22T11:40:35.628Z,53.70
2019-05-22T11:43:05.609Z,87.80
2019-05-22T11:45:35.566Z,46.53
2019-05-22T11:48:05.276Z,25.93
2019-05-22T11:50:35.505Z,19.30
2019-05-22T11:53:05.238Z,19.43
2019-05-22T11:55:45.112Z,15.27
2019-05-22T11:58:07.235Z,16.90
2019-05-22T12:00:36.979Z,18.20
2019-05-22T12:03:07.143Z,18.10
2019-05-22T12:05:37.173Z,18.57
2019-05-22T12:08:07.120Z,19.43
2019-05-22T12:10:37.060Z,16.30
2019-05-22T12:13:08.444Z,18.03
2019-05-22T12:15:38.059Z,17.73
2019-05-22T12:18:07.860Z,15.70
2019-05-22T12:20:37.448Z,18.20
2019-05-22T12:23:07.192Z,17.40
2019-05-22T12:25:37.127Z,21.30
2019-05-22T12:28:06.771Z,17.10
2019-05-22T12:30:36.979Z,89.20
2019-05-22T12:33:13.284Z,44.83
2019-05-22T12:35:41.019Z,24.73
2019-05-22T12:38:11.504Z,21.37
2019-05-22T12:40:41.547Z,23.27
2019-05-22T12:43:11.790Z,54.83
2019-05-22T12:45:41.387Z,39.83
2019-05-22T12:48:11.557Z,28.63
2019-05-22T12:50:41.435Z,24.20
2019-05-22T12:53:12.127Z,20.30
2019-05-22T12:55:41.756Z,22.87
2019-05-22T12:58:11.377Z,22.42
2019-05-22T13:00:41.104Z,43.93
2019-05-22T13:03:11.852Z,97.20
2019-05-22T13:05:41.483Z,101.90
2019-05-22T13:08:12.668Z,53.40
2019-05-22T13:10:43.079Z,32.33
2019-05-22T13:13:13.047Z,32.90
2019-05-22T13:15:43.134Z,23.73
2019-05-22T13:18:14.548Z,26.17
2019-05-22T13:20:45.221Z,28.03
2019-05-22T13:23:15.818Z,20.33
2019-05-22T13:25:45.692Z,22.07
2019-05-22T13:28:17.882Z,22.17
2019-05-22T13:30:49.651Z,22.33
2019-05-22T13:33:22.115Z,23.30
2019-05-22T13:35:51.949Z,21.13
2019-05-22T13:38:21.995Z,19.40
2019-05-22T13:40:51.926Z,17.37
2019-05-22T13:43:21.744Z,20.03
2019-05-22T13:45:51.855Z,24.23
2019-05-22T13:48:21.689Z,17.33
2019-05-22T13:50:51.632Z,17.63
2019-05-22T13:53:21.510Z,21.03
2019-05-22T13:55:51.656Z,17.27
2019-05-22T13:58:22.803Z,17.13
2019-05-22T14:00:52.401Z,20.47
2019-05-22T14:03:22.281Z,21.33
2019-05-22T14:05:53.433Z,19.17
2019-05-22T14:08:23.859Z,19.03
2019-05-22T14:10:53.551Z,20.00
2019-05-22T14:13:25.475Z,21.17
2019-05-22T14:15:57.259Z,20.97
2019-05-22T14:18:26.701Z,34.13
2019-05-22T14:20:57.636Z,51.33
2019-05-22T14:23:29.180Z,38.17
2019-05-22T14:25:59.061Z,34.37
2019-05-22T14:28:30.375Z,27.03
2019-05-22T14:31:00.311Z,25.40
2019-05-22T14:33:30.037Z,38.27
2019-05-22T14:36:00.886Z,40.60
2019-05-22T14:38:30.831Z,58.93
2019-05-22T14:41:01.352Z,50.90
2019-05-22T14:43:31.159Z,44.73
2019-05-22T14:46:00.846Z,35.00
2019-05-22T14:48:30.577Z,33.70
2019-05-22T14:51:00.515Z,27.23
2019-05-22T14:53:30.919Z,22.13
2019-05-22T14:56:00.581Z,21.33
2019-05-22T14:58:30.890Z,20.77
2019-05-22T15:01:00.648Z,23.60
2019-05-22T15:03:30.839Z,19.33
2019-05-22T15:06:00.734Z,18.13
2019-05-22T15:08:30.431Z,14.50
2019-05-22T15:11:00.462Z,18.40
2019-05-22T15:13:30.498Z,14.70
2019-05-22T15:16:00.560Z,14.60
2019-05-22T15:18:30.478Z,22.27
2019-05-22T15:21:01.395Z,16.82
2019-05-22T15:23:32.262Z,12.82
2019-05-22T15:26:02.891Z,12.53
2019-05-22T15:28:32.540Z,15.98
2019-05-22T15:31:03.560Z,14.40
2019-05-22T15:33:33.748Z,16.12
2019-05-22T15:36:08.953Z,13.75
2019-05-22T15:38:40.789Z,14.85
2019-05-22T15:41:11.379Z,14.23
2019-05-22T15:43:43.235Z,15.55
2019-05-22T15:46:13.915Z,13.62
2019-05-22T15:48:45.091Z,18.27
2019-05-22T15:51:16.482Z,64.00
2019-05-22T15:53:46.769Z,48.07
2019-05-22T15:56:17.930Z,23.33
2019-05-22T15:58:49.637Z,70.10
2019-05-22T16:01:21.809Z,61.77
2019-05-22T16:03:52.287Z,66.73
2019-05-22T16:06:24.185Z,63.00
2019-05-22T16:08:53.934Z,22.63
2019-05-22T16:11:25.503Z,20.97
2019-05-22T16:13:56.777Z,18.77
2019-05-22T16:16:26.781Z,17.87
2019-05-22T16:18:59.738Z,17.30
2019-05-22T16:21:31.231Z,13.13
2019-05-22T16:24:00.975Z,14.03
2019-05-22T16:26:30.764Z,13.50
2019-05-22T16:29:01.561Z,15.03
2019-05-22T16:31:32.595Z,16.07
2019-05-22T16:34:02.492Z,13.27
2019-05-22T16:36:32.911Z,14.77
2019-05-22T16:39:03.254Z,10.97
2019-05-22T16:41:33.588Z,11.00
2019-05-22T16:44:03.793Z,16.73
2019-05-22T16:46:33.726Z,14.03
2019-05-22T16:49:03.653Z,19.90
2019-05-22T16:51:34.011Z,14.93
2019-05-22T16:54:05.092Z,13.73
2019-05-22T16:56:36.010Z,12.77
2019-05-22T16:59:08.584Z,14.23
2019-05-22T17:01:56.996Z,15.60
2019-05-22T17:04:11.420Z,12.47
2019-05-22T17:06:44.647Z,12.30
2019-05-22T17:09:15.239Z,12.13
2019-05-22T17:11:45.880Z,11.60
2019-05-22T17:14:16.627Z,12.03
2019-05-22T17:16:47.473Z,12.87
2019-05-22T17:19:26.595Z,12.80
2019-05-22T17:21:49.734Z,16.60
2019-05-22T17:24:21.411Z,14.60
2019-05-22T17:26:52.437Z,13.63
2019-05-22T17:29:23.030Z,15.00
2019-05-22T17:31:53.160Z,13.23
2019-05-22T17:34:32.418Z,13.60
2019-05-22T17:37:09.578Z,21.80
2019-05-22T17:39:40.929Z,13.90
2019-05-22T17:42:12.475Z,13.17
2019-05-22T17:44:43.459Z,15.20
2019-05-22T17:47:13.365Z,13.40
2019-05-22T17:49:43.095Z,15.47
2019-05-22T17:52:13.350Z,12.90
2019-05-22T17:54:43.405Z,14.13
2019-05-22T17:57:13.801Z,16.90
2019-05-22T17:59:43.369Z,14.33
2019-05-22T18:02:14.739Z,13.87
2019-05-22T18:04:44.467Z,12.37
2019-05-22T18:07:15.854Z,17.33
2019-05-22T18:09:45.897Z,13.40
2019-05-22T18:12:15.795Z,13.43
2019-05-22T18:14:46.446Z,14.00
2019-05-22T18:17:16.401Z,13.43
2019-05-22T18:19:46.276Z,11.13
2019-05-22T18:22:16.824Z,13.83
2019-05-22T18:24:46.660Z,16.60
2019-05-22T18:27:16.453Z,14.83
2019-05-22T18:29:46.042Z,12.47
2019-05-22T18:32:16.102Z,16.37
2019-05-22T18:34:45.727Z,16.13
2019-05-22T18:37:15.523Z,14.23
2019-05-22T18:39:45.197Z,13.00
2019-05-22T18:42:15.299Z,14.23
2019-05-22T18:44:44.959Z,15.07
2019-05-22T18:47:14.651Z,13.20
2019-05-22T18:49:44.696Z,17.03
2019-05-22T18:52:14.297Z,18.87
2019-05-22T18:54:44.120Z,16.50
2019-05-22T18:57:14.818Z,21.00
2019-05-22T18:59:44.765Z,15.77
2019-05-22T19:02:14.734Z,12.07
2019-05-22T19:04:44.449Z,17.30
2019-05-22T19:07:14.183Z,12.83
2019-05-22T19:09:43.888Z,16.27
2019-05-22T19:12:13.814Z,14.67
2019-05-22T19:14:44.022Z,18.50
2019-05-22T19:17:14.043Z,15.90
2019-05-22T19:19:43.957Z,15.07
2019-05-22T19:22:14.161Z,16.93
2019-05-22T19:24:43.849Z,15.10
2019-05-22T19:27:13.610Z,15.60
2019-05-22T19:29:43.314Z,15.20
2019-05-22T19:32:13.227Z,12.60
2019-05-22T19:34:43.199Z,14.27
2019-05-22T19:37:13.030Z,12.17
2019-05-22T19:39:44.430Z,14.00
2019-05-22T19:42:15.513Z,12.97
2019-05-22T19:44:46.296Z,15.47
2019-05-22T19:47:16.338Z,11.50
2019-05-22T19:49:46.342Z,14.40
2019-05-22T19:52:21.573Z,15.67
2019-05-22T19:54:48.896Z,12.17
2019-05-22T19:57:19.034Z,16.30
2019-05-22T19:59:48.877Z,14.73
2019-05-22T20:02:18.564Z,11.53
2019-05-22T20:04:48.288Z,11.33
2019-05-22T20:07:18.003Z,13.53
2019-05-22T20:09:48.192Z,13.53
2019-05-22T20:12:18.944Z,12.60
2019-05-22T20:14:48.770Z,12.47
2019-05-22T20:17:18.567Z,12.93
2019-05-22T20:19:48.617Z,13.83
2019-05-22T20:22:18.595Z,14.37
2019-05-22T20:24:48.341Z,13.77
2019-05-22T20:27:20.624Z,15.67
2019-05-22T20:29:50.899Z,14.17
2019-05-22T20:32:25.316Z,12.30
2019-05-22T20:34:55.403Z,13.97
2019-05-22T20:37:25.108Z,12.70
2019-05-22T20:39:55.035Z,12.97
2019-05-22T20:42:25.490Z,18.70
2019-05-22T20:44:55.426Z,12.00
2019-05-22T20:47:26.749Z,10.87
2019-05-22T20:49:57.541Z,15.33
2019-05-22T20:52:28.135Z,16.73
2019-05-22T20:54:58.202Z,15.43
2019-05-22T20:57:28.168Z,12.70
2019-05-22T20:59:58.091Z,13.30
2019-05-22T21:02:29.792Z,12.10
2019-05-22T21:05:00.523Z,14.10
2019-05-22T21:07:33.078Z,13.80
2019-05-22T21:10:06.024Z,15.30
2019-05-22T21:12:37.060Z,12.27
2019-05-22T21:15:07.133Z,14.37
2019-05-22T21:17:38.258Z,13.80
2019-05-22T21:20:10.316Z,13.83
2019-05-22T21:22:40.687Z,18.87
2019-05-22T21:25:11.886Z,17.03
2019-05-22T21:27:42.375Z,15.17
2019-05-22T21:30:13.866Z,15.47
2019-05-22T21:32:44.159Z,17.40
2019-05-22T21:35:16.520Z,19.73
2019-05-22T21:37:46.104Z,20.67
2019-05-22T21:40:17.805Z,18.10
2019-05-22T21:42:47.490Z,16.20
2019-05-22T21:45:18.151Z,15.50
2019-05-22T21:47:47.842Z,14.93
2019-05-22T21:50:17.746Z,18.27
2019-05-22T21:52:47.498Z,15.83
2019-05-22T21:55:18.217Z,17.77
2019-05-22T21:57:47.854Z,15.47
2019-05-22T22:00:22.285Z,24.13
2019-05-22T22:02:54.619Z,15.20
2019-05-22T22:05:24.665Z,19.63
2019-05-22T22:07:54.616Z,20.47
2019-05-22T22:10:27.299Z,18.77
2019-05-22T22:12:57.806Z,18.73
2019-05-22T22:15:28.179Z,16.10
2019-05-22T22:17:57.824Z,16.63
2019-05-22T22:20:28.008Z,18.07
2019-05-22T22:22:58.019Z,17.63
2019-05-22T22:25:28.677Z,17.70
2019-05-22T22:27:58.304Z,20.80
2019-05-22T22:30:33.883Z,17.17
2019-05-22T22:33:07.715Z,18.50
2019-05-22T22:35:38.858Z,19.07
2019-05-22T22:38:08.915Z,21.43
2019-05-22T22:40:40.704Z,18.73
2019-05-22T22:43:12.267Z,15.07
2019-05-22T22:45:49.616Z,17.50
2019-05-22T22:48:22.794Z,18.67
2019-05-22T22:50:52.776Z,19.07
2019-05-22T22:53:22.703Z,20.17
2019-05-22T22:55:53.347Z,18.90
2019-05-22T22:58:23.402Z,20.10
2019-05-22T23:00:54.999Z,20.17
2019-05-22T23:03:27.054Z,18.57
2019-05-22T23:05:56.947Z,21.13
2019-05-22T23:08:29.399Z,21.33
2019-05-22T23:11:00.061Z,24.93
2019-05-22T23:13:29.962Z,20.77
2019-05-22T23:16:00.227Z,17.13
2019-05-22T23:18:54.821Z,18.70
2019-05-22T23:21:25.518Z,21.87
2019-05-22T23:23:55.167Z,21.17
2019-05-22T23:26:25.909Z,21.00
2019-05-22T23:28:56.062Z,21.00
2019-05-22T23:31:25.736Z,19.53
2019-05-22T23:33:56.428Z,18.87
2019-05-22T23:36:26.387Z,21.60
2019-05-22T23:38:59.462Z,23.67
2019-05-22T23:41:32.392Z,20.20
2019-05-22T23:44:02.242Z,19.53
2019-05-22T23:46:32.323Z,23.00
2019-05-22T23:49:02.742Z,23.27
2019-05-22T23:51:32.903Z,21.67
2019-05-22T23:54:03.555Z,21.60
2019-05-22T23:56:34.752Z,24.07
2019-05-22T23:59:04.546Z,19.03
